< Typhoon 200724 2008 Season Typhoon 200802 >
Typhoon 200801 (NEOGURI)
General InformationTrack Information on Google MapsDetailed Wind InformationAccess Analytics MapList of All Images || NewsDisaster Info.WeblogTrackbackTyphoon FrontTyphoon ImaginationResourceGoogle EarthGE AnimationAtom FeedGeoJSON
Detalied Best Track (Time Zone = UTC)
Year Month Day Hour Lat. Long. Pressure (hPa) Wind (kt) Class Image Chart
2008 4 13 00 8.6 128.0 1006 0 2 Image Chart
2008 4 13 06 8.8 126.3 1004 0 2 Image Chart
2008 4 13 12 8.8 124.7 1004 0 2 Image Chart
2008 4 13 18 8.8 123.0 1004 0 2 Image Chart
2008 4 14 00 8.8 121.6 1004 0 2 Image Chart
2008 4 14 06 8.9 120.3 1004 0 2 Image Chart
2008 4 14 12 9.3 119.2 1004 0 2 Image Chart
2008 4 14 18 9.7 117.9 1002 0 2 Image Chart
2008 4 15 00 10.2 117.0 1002 0 2 Image Chart
2008 4 15 06 10.8 116.3 998 35 3 Image Chart
2008 4 15 12 11.9 115.3 996 40 3 Image Chart
2008 4 15 18 12.6 114.2 994 45 3 Image Chart
2008 4 16 00 13.1 113.0 990 50 4 Image Chart
2008 4 16 06 13.3 112.5 980 60 4 Image Chart
2008 4 16 12 13.8 112.4 975 65 5 Image Chart
2008 4 16 18 14.6 112.3 970 70 5 Image Chart
2008 4 17 00 15.2 112.1 965 75 5 Image Chart
2008 4 17 06 15.9 112.0 960 80 5 Image Chart
2008 4 17 12 16.5 111.9 960 80 5 Image Chart
2008 4 17 18 17.1 111.6 960 80 5 Image Chart
2008 4 18 00 17.8 111.5 965 80 5 Image Chart
2008 4 18 06 18.5 111.5 965 75 5 Image Chart
2008 4 18 12 19.1 111.5 970 70 5 Image Chart
2008 4 18 18 19.8 111.5 975 65 5 Image Chart
2008 4 19 00 20.7 111.7 985 55 4 Image Chart
2008 4 19 06 21.6 112.4 992 45 3 Image Chart
2008 4 19 12 22.9 113.0 998 35 3 Image Chart
2008 4 19 18 24.5 113.9 1004 0 2 Image Chart
Japan Meteorological Agency Best Track Data | Correction Date : 2008-05-28
< Typhoon 200724 2008 Season Typhoon 200802 >

Help